Weather at Fort Lauderdale Hollywood International Airport

Public forecast

Using degrees Fahrenheit for public forecast. Weather courtesy of forecast.io.

Current aviation weather report (METAR) for Fort Lauderdale Hollywood International Airport

Retrieved 2022/05/22 01:53 UTC (28 minutes ago):

KFLL 220153Z 11014KT 10SM BKN030 28/26 A3016 RMK AO2 SLP213 T02780256

Aviation forecast (TAF) for Fort Lauderdale Hollywood International Airport

Retrieved 2022-05-22 00:23 UTC (2 hours ago):

TAF KFLL 212320Z 2200/2306 12012KT P6SM SCT020 BKN035 FM221500 12015G25KT P6SM SCT025 BKN250 FM222300 12012KT P6SM SCT025 BKN250